createdAt,value
2018-01-27T00:03:33.667Z,23.30
2018-01-27T00:09:38.017Z,20.47
2018-01-27T00:15:42.000Z,19.83
2018-01-27T00:21:46.771Z,20.63
2018-01-27T00:27:51.973Z,18.53
2018-01-27T00:33:55.996Z,18.37
2018-01-27T00:39:59.868Z,20.67
2018-01-27T00:46:03.804Z,18.40
2018-01-27T00:52:08.705Z,20.63
2018-01-27T00:58:12.660Z,19.97
2018-01-27T01:04:17.168Z,18.00
2018-01-27T01:10:21.872Z,19.23
2018-01-27T01:16:25.790Z,18.13
2018-01-27T01:22:29.673Z,17.70
2018-01-27T01:28:33.681Z,16.33
2018-01-27T01:34:37.643Z,17.57
2018-01-27T01:40:41.587Z,17.90
2018-01-27T01:46:45.692Z,17.93
2018-01-27T01:52:49.568Z,17.70
2018-01-27T01:58:53.737Z,15.87
2018-01-27T02:04:57.884Z,13.10
2018-01-27T02:11:02.857Z,13.13
2018-01-27T02:17:07.497Z,12.87
2018-01-27T02:23:11.459Z,12.77
2018-01-27T02:29:15.631Z,12.97
2018-01-27T02:35:19.714Z,13.17
2018-01-27T02:41:23.674Z,13.63
2018-01-27T02:47:27.694Z,14.07
2018-01-27T02:53:31.613Z,14.90
2018-01-27T02:59:35.539Z,14.97
2018-01-27T03:05:40.486Z,14.47
2018-01-27T03:11:44.640Z,15.53
2018-01-27T03:17:48.786Z,15.70
2018-01-27T03:23:52.851Z,15.07
2018-01-27T03:29:56.770Z,15.00
2018-01-27T03:36:00.698Z,13.37
2018-01-27T03:42:04.764Z,15.50
2018-01-27T03:48:08.701Z,14.43
2018-01-27T03:54:12.727Z,14.40
2018-01-27T04:00:16.906Z,14.07
2018-01-27T04:06:21.721Z,13.03
2018-01-27T04:12:25.723Z,12.83
2018-01-27T04:18:29.777Z,13.57
2018-01-27T04:24:33.873Z,13.63
2018-01-27T04:30:37.774Z,13.90
2018-01-27T04:36:41.660Z,13.37
2018-01-27T04:42:45.763Z,13.70
2018-01-27T04:48:49.810Z,13.80
2018-01-27T04:54:54.059Z,14.07
2018-01-27T05:00:57.968Z,13.20
2018-01-27T05:07:01.974Z,12.37
2018-01-27T05:13:06.025Z,13.20
2018-01-27T05:19:10.098Z,11.50
2018-01-27T05:25:13.944Z,14.87
2018-01-27T05:31:18.119Z,11.90
2018-01-27T05:37:22.007Z,12.43
2018-01-27T05:43:26.479Z,13.10
2018-01-27T05:49:31.567Z,12.87
2018-01-27T05:55:35.808Z,15.70
2018-01-27T06:01:40.684Z,20.00
2018-01-27T06:07:44.730Z,15.23
2018-01-27T06:13:49.400Z,14.93
2018-01-27T06:19:53.424Z,13.93
2018-01-27T06:25:58.482Z,14.27
2018-01-27T06:32:02.621Z,15.47
2018-01-27T06:38:07.450Z,14.90
2018-01-27T06:44:12.512Z,13.10
2018-01-27T06:50:16.874Z,15.43
2018-01-27T06:56:20.892Z,14.40
2018-01-27T07:02:25.002Z,15.02
2018-01-27T07:08:30.344Z,14.77
2018-01-27T07:14:34.728Z,17.37
2018-01-27T07:20:38.800Z,13.87
2018-01-27T07:26:43.924Z,12.67
2018-01-27T07:32:49.686Z,10.93
2018-01-27T07:38:53.713Z,9.70
2018-01-27T12:12:02.094Z,29.10
2018-01-27T12:18:05.934Z,21.43
2018-01-27T12:24:10.251Z,23.43
2018-01-27T12:30:15.619Z,13.03
2018-01-27T12:36:19.801Z,21.10
2018-01-27T12:42:23.999Z,13.65
2018-01-27T12:48:29.242Z,16.60
2018-01-27T12:54:34.842Z,16.35
2018-01-27T13:00:40.091Z,15.70
2018-01-27T13:06:45.312Z,17.63
2018-01-27T13:12:50.865Z,20.48
2018-01-27T13:18:56.030Z,11.47
2018-01-27T13:25:01.119Z,12.53
2018-01-27T13:31:06.212Z,11.05
2018-01-27T13:37:11.719Z,13.82
2018-01-27T13:43:16.877Z,14.05
2018-01-27T13:49:22.139Z,16.50
2018-01-27T13:55:27.502Z,13.63
2018-01-27T14:01:32.513Z,13.80
2018-01-27T19:17:49.511Z,36.73
2018-01-27T19:23:54.783Z,24.27
2018-01-27T19:30:00.189Z,23.83
2018-01-27T19:36:09.265Z,27.77
2018-01-27T19:42:14.752Z,32.83
2018-01-27T19:48:20.265Z,34.37
2018-01-27T19:54:25.748Z,34.40
2018-01-27T20:00:30.909Z,32.23
2018-01-27T20:06:39.849Z,30.07
2018-01-27T20:12:47.977Z,29.27
2018-01-27T20:18:53.224Z,26.03
2018-01-27T20:24:58.668Z,23.00
2018-01-27T20:31:04.628Z,22.80
2018-01-27T20:37:09.812Z,23.30
2018-01-27T20:43:14.956Z,25.50
2018-01-27T20:49:20.288Z,24.67
2018-01-27T20:55:25.600Z,28.10
2018-01-27T21:01:30.827Z,26.83
2018-01-27T21:07:36.182Z,27.13
2018-01-27T21:13:41.746Z,42.47
2018-01-27T21:19:46.858Z,36.90
2018-01-27T21:25:52.182Z,29.70
2018-01-27T21:31:57.665Z,27.53
2018-01-27T21:38:12.830Z,25.20
2018-01-27T21:44:18.181Z,26.37
2018-01-27T21:50:23.538Z,26.00
2018-01-27T21:56:28.758Z,24.33
2018-01-27T22:02:33.921Z,24.73
2018-01-27T22:08:42.855Z,24.73
2018-01-27T22:14:48.196Z,25.50
2018-01-27T22:20:53.338Z,23.30
2018-01-27T22:26:58.901Z,25.73
2018-01-27T22:33:04.293Z,27.03
2018-01-27T22:39:09.450Z,27.17
2018-01-27T22:45:14.618Z,31.00
2018-01-27T22:51:20.005Z,34.23
2018-01-27T22:57:25.248Z,36.00
2018-01-27T23:03:30.474Z,44.03
2018-01-27T23:09:35.839Z,45.47
2018-01-27T23:15:43.879Z,43.77
2018-01-27T23:21:49.219Z,46.37
2018-01-27T23:27:54.561Z,49.80
2018-01-27T23:34:00.092Z,53.07
2018-01-27T23:40:05.351Z,39.80
2018-01-27T23:46:10.524Z,32.10
2018-01-27T23:52:15.729Z,33.30
2018-01-27T23:58:21.051Z,32.50
